sensor_id;sensor_type;location;lat;lon;timestamp;temperature;humidity
16625;DHT22;8426;48.496;9.098;2023-05-29T00:03:41;10.30;99.90
16625;DHT22;8426;48.496;9.098;2023-05-29T00:08:45;10.20;99.90
16625;DHT22;8426;48.496;9.098;2023-05-29T00:13:48;10.10;99.90
16625;DHT22;8426;48.496;9.098;2023-05-29T00:18:53;10.10;99.90
16625;DHT22;8426;48.496;9.098;2023-05-29T00:23:59;10.00;99.90
16625;DHT22;8426;48.496;9.098;2023-05-29T00:29:04;9.90;99.90
16625;DHT22;8426;48.496;9.098;2023-05-29T00:34:09;9.90;99.90
16625;DHT22;8426;48.496;9.098;2023-05-29T00:39:13;9.90;99.90
16625;DHT22;8426;48.496;9.098;2023-05-29T00:44:18;9.80;99.90
16625;DHT22;8426;48.496;9.098;2023-05-29T00:49:23;9.70;99.90
16625;DHT22;8426;48.496;9.098;2023-05-29T00:54:28;9.60;99.90
16625;DHT22;8426;48.496;9.098;2023-05-29T00:59:34;9.60;99.90
16625;DHT22;8426;48.496;9.098;2023-05-29T01:04:40;9.50;99.90
16625;DHT22;8426;48.496;9.098;2023-05-29T01:09:43;9.30;99.90
16625;DHT22;8426;48.496;9.098;2023-05-29T01:14:56;9.30;99.90
16625;DHT22;8426;48.496;9.098;2023-05-29T01:20:16;9.30;99.90
16625;DHT22;8426;48.496;9.098;2023-05-29T01:25:31;9.10;99.90
16625;DHT22;8426;48.496;9.098;2023-05-29T01:30:40;9.00;99.90
16625;DHT22;8426;48.496;9.098;2023-05-29T01:35:46;8.90;99.90
16625;DHT22;8426;48.496;9.098;2023-05-29T01:40:50;9.00;99.90
16625;DHT22;8426;48.496;9.098;2023-05-29T01:45:57;8.90;99.90
16625;DHT22;8426;48.496;9.098;2023-05-29T01:51:01;8.90;99.90
16625;DHT22;8426;48.496;9.098;2023-05-29T01:56:08;8.80;99.90
16625;DHT22;8426;48.496;9.098;2023-05-29T02:01:13;8.70;99.90
16625;DHT22;8426;48.496;9.098;2023-05-29T02:06:16;8.60;99.90
16625;DHT22;8426;48.496;9.098;2023-05-29T02:11:21;8.60;99.90
16625;DHT22;8426;48.496;9.098;2023-05-29T02:16:26;8.70;99.90
16625;DHT22;8426;48.496;9.098;2023-05-29T02:21:30;8.60;99.90
16625;DHT22;8426;48.496;9.098;2023-05-29T02:26:34;8.60;99.90
16625;DHT22;8426;48.496;9.098;2023-05-29T02:31:40;8.40;99.90
16625;DHT22;8426;48.496;9.098;2023-05-29T02:36:44;8.30;99.90
16625;DHT22;8426;48.496;9.098;2023-05-29T02:41:49;8.20;99.90
16625;DHT22;8426;48.496;9.098;2023-05-29T02:46:54;8.20;99.90
16625;DHT22;8426;48.496;9.098;2023-05-29T02:51:58;8.20;99.90
16625;DHT22;8426;48.496;9.098;2023-05-29T02:57:03;8.10;99.90
16625;DHT22;8426;48.496;9.098;2023-05-29T03:02:08;8.00;99.90
16625;DHT22;8426;48.496;9.098;2023-05-29T03:07:12;7.90;99.90
16625;DHT22;8426;48.496;9.098;2023-05-29T03:12:17;7.80;99.90
16625;DHT22;8426;48.496;9.098;2023-05-29T03:17:23;7.80;99.90
16625;DHT22;8426;48.496;9.098;2023-05-29T03:22:26;7.80;99.90
16625;DHT22;8426;48.496;9.098;2023-05-29T03:27:31;7.60;99.90
16625;DHT22;8426;48.496;9.098;2023-05-29T03:32:39;7.70;99.90
16625;DHT22;8426;48.496;9.098;2023-05-29T03:37:43;7.70;99.90
16625;DHT22;8426;48.496;9.098;2023-05-29T03:42:47;7.70;99.90
16625;DHT22;8426;48.496;9.098;2023-05-29T03:47:58;7.70;99.90
16625;DHT22;8426;48.496;9.098;2023-05-29T03:53:02;7.70;99.90
16625;DHT22;8426;48.496;9.098;2023-05-29T03:58:06;7.90;99.90
16625;DHT22;8426;48.496;9.098;2023-05-29T04:03:16;7.90;99.90
16625;DHT22;8426;48.496;9.098;2023-05-29T04:08:19;8.10;99.90
16625;DHT22;8426;48.496;9.098;2023-05-29T04:13:24;8.20;99.90
16625;DHT22;8426;48.496;9.098;2023-05-29T04:18:30;8.30;99.90
16625;DHT22;8426;48.496;9.098;2023-05-29T04:23:34;8.40;99.90
16625;DHT22;8426;48.496;9.098;2023-05-29T04:28:38;8.70;99.90
16625;DHT22;8426;48.496;9.098;2023-05-29T04:33:43;9.00;99.90
16625;DHT22;8426;48.496;9.098;2023-05-29T04:38:48;9.30;99.90
16625;DHT22;8426;48.496;9.098;2023-05-29T04:43:54;9.50;99.90
16625;DHT22;8426;48.496;9.098;2023-05-29T04:49:00;9.70;99.90
16625;DHT22;8426;48.496;9.098;2023-05-29T04:54:05;9.90;99.90
16625;DHT22;8426;48.496;9.098;2023-05-29T04:59:08;10.20;99.90
16625;DHT22;8426;48.496;9.098;2023-05-29T05:04:14;10.50;99.90
16625;DHT22;8426;48.496;9.098;2023-05-29T05:09:18;10.80;99.90
16625;DHT22;8426;48.496;9.098;2023-05-29T05:14:22;11.10;99.90
16625;DHT22;8426;48.496;9.098;2023-05-29T05:19:27;11.30;99.90
16625;DHT22;8426;48.496;9.098;2023-05-29T05:24:37;11.60;99.90
16625;DHT22;8426;48.496;9.098;2023-05-29T05:29:41;11.80;99.90
16625;DHT22;8426;48.496;9.098;2023-05-29T05:34:45;12.00;99.90
16625;DHT22;8426;48.496;9.098;2023-05-29T05:39:50;12.20;99.90
16625;DHT22;8426;48.496;9.098;2023-05-29T05:44:56;12.50;99.90
16625;DHT22;8426;48.496;9.098;2023-05-29T05:50:01;14.90;99.90
16625;DHT22;8426;48.496;9.098;2023-05-29T05:55:08;19.80;99.90
16625;DHT22;8426;48.496;9.098;2023-05-29T06:00:15;23.80;99.90
16625;DHT22;8426;48.496;9.098;2023-05-29T06:05:21;25.60;99.90
16625;DHT22;8426;48.496;9.098;2023-05-29T06:10:25;28.00;96.80
16625;DHT22;8426;48.496;9.098;2023-05-29T06:15:29;28.20;93.80
16625;DHT22;8426;48.496;9.098;2023-05-29T06:20:35;28.40;91.80
16625;DHT22;8426;48.496;9.098;2023-05-29T06:25:41;28.20;91.50
16625;DHT22;8426;48.496;9.098;2023-05-29T06:30:47;29.10;90.10
16625;DHT22;8426;48.496;9.098;2023-05-29T06:35:53;29.20;89.30
16625;DHT22;8426;48.496;9.098;2023-05-29T06:40:57;29.30;90.00
16625;DHT22;8426;48.496;9.098;2023-05-29T06:46:02;30.00;87.60
16625;DHT22;8426;48.496;9.098;2023-05-29T06:51:09;30.00;83.60
16625;DHT22;8426;48.496;9.098;2023-05-29T06:56:17;30.00;84.80
16625;DHT22;8426;48.496;9.098;2023-05-29T07:01:24;30.30;83.40
16625;DHT22;8426;48.496;9.098;2023-05-29T07:06:32;29.00;85.60
16625;DHT22;8426;48.496;9.098;2023-05-29T07:11:38;29.20;86.50
16625;DHT22;8426;48.496;9.098;2023-05-29T07:16:41;29.80;84.30
16625;DHT22;8426;48.496;9.098;2023-05-29T07:21:48;29.90;83.30
16625;DHT22;8426;48.496;9.098;2023-05-29T07:26:54;30.30;84.20
16625;DHT22;8426;48.496;9.098;2023-05-29T07:32:00;30.00;81.90
16625;DHT22;8426;48.496;9.098;2023-05-29T07:37:06;29.90;82.10
16625;DHT22;8426;48.496;9.098;2023-05-29T07:42:10;30.30;83.20
16625;DHT22;8426;48.496;9.098;2023-05-29T07:47:22;29.90;85.00
16625;DHT22;8426;48.496;9.098;2023-05-29T07:52:28;30.30;84.50
16625;DHT22;8426;48.496;9.098;2023-05-29T07:57:33;30.50;84.70
16625;DHT22;8426;48.496;9.098;2023-05-29T08:02:37;31.30;82.50
16625;DHT22;8426;48.496;9.098;2023-05-29T08:07:44;31.10;80.30
16625;DHT22;8426;48.496;9.098;2023-05-29T08:12:52;30.30;81.10
16625;DHT22;8426;48.496;9.098;2023-05-29T08:17:59;30.30;83.50
16625;DHT22;8426;48.496;9.098;2023-05-29T08:23:10;32.00;80.50
16625;DHT22;8426;48.496;9.098;2023-05-29T08:28:14;31.60;80.70
16625;DHT22;8426;48.496;9.098;2023-05-29T08:33:25;30.80;80.20
16625;DHT22;8426;48.496;9.098;2023-05-29T08:38:36;30.00;82.70
16625;DHT22;8426;48.496;9.098;2023-05-29T08:43:48;30.00;83.60
16625;DHT22;8426;48.496;9.098;2023-05-29T08:48:57;30.40;82.60
16625;DHT22;8426;48.496;9.098;2023-05-29T08:54:04;29.70;84.30
16625;DHT22;8426;48.496;9.098;2023-05-29T08:59:11;29.50;84.10
16625;DHT22;8426;48.496;9.098;2023-05-29T09:04:20;29.30;83.00
16625;DHT22;8426;48.496;9.098;2023-05-29T09:09:36;29.30;82.10
16625;DHT22;8426;48.496;9.098;2023-05-29T09:14:41;29.90;82.10
16625;DHT22;8426;48.496;9.098;2023-05-29T09:19:48;29.00;82.60
16625;DHT22;8426;48.496;9.098;2023-05-29T09:24:54;28.60;84.70
16625;DHT22;8426;48.496;9.098;2023-05-29T09:29:58;29.30;84.20
16625;DHT22;8426;48.496;9.098;2023-05-29T09:35:09;29.10;82.40
16625;DHT22;8426;48.496;9.098;2023-05-29T09:40:33;29.50;82.80
16625;DHT22;8426;48.496;9.098;2023-05-29T09:45:39;29.50;81.60
16625;DHT22;8426;48.496;9.098;2023-05-29T09:50:43;28.60;83.60
16625;DHT22;8426;48.496;9.098;2023-05-29T09:55:55;28.80;83.60
16625;DHT22;8426;48.496;9.098;2023-05-29T10:01:00;29.00;81.80
16625;DHT22;8426;48.496;9.098;2023-05-29T10:06:06;28.90;83.10
16625;DHT22;8426;48.496;9.098;2023-05-29T10:11:13;27.80;85.10
16625;DHT22;8426;48.496;9.098;2023-05-29T10:16:21;27.50;85.00
16625;DHT22;8426;48.496;9.098;2023-05-29T10:47:25;26.60;89.70
16625;DHT22;8426;48.496;9.098;2023-05-29T10:52:34;26.60;87.30
16625;DHT22;8426;48.496;9.098;2023-05-29T10:57:46;26.50;88.50
16625;DHT22;8426;48.496;9.098;2023-05-29T11:02:53;26.40;87.70
16625;DHT22;8426;48.496;9.098;2023-05-29T11:07:59;26.80;87.50
16625;DHT22;8426;48.496;9.098;2023-05-29T11:13:07;26.60;87.80
16625;DHT22;8426;48.496;9.098;2023-05-29T11:18:23;26.60;88.00
16625;DHT22;8426;48.496;9.098;2023-05-29T11:23:39;26.30;87.50
16625;DHT22;8426;48.496;9.098;2023-05-29T11:28:46;26.30;86.70
16625;DHT22;8426;48.496;9.098;2023-05-29T11:33:59;26.60;86.10
16625;DHT22;8426;48.496;9.098;2023-05-29T11:39:05;26.80;84.40
16625;DHT22;8426;48.496;9.098;2023-05-29T11:44:13;27.10;85.10
16625;DHT22;8426;48.496;9.098;2023-05-29T11:49:29;26.70;82.60
16625;DHT22;8426;48.496;9.098;2023-05-29T11:54:33;26.90;84.60
16625;DHT22;8426;48.496;9.098;2023-05-29T11:59:45;26.60;83.70
16625;DHT22;8426;48.496;9.098;2023-05-29T12:05:08;26.90;85.60
16625;DHT22;8426;48.496;9.098;2023-05-29T12:10:13;26.70;81.00
16625;DHT22;8426;48.496;9.098;2023-05-29T12:15:21;26.70;82.80
16625;DHT22;8426;48.496;9.098;2023-05-29T12:20:28;26.30;84.10
16625;DHT22;8426;48.496;9.098;2023-05-29T12:25:34;26.30;82.20
16625;DHT22;8426;48.496;9.098;2023-05-29T12:30:45;26.40;80.00
16625;DHT22;8426;48.496;9.098;2023-05-29T12:36:05;26.40;78.30
16625;DHT22;8426;48.496;9.098;2023-05-29T12:41:22;26.20;79.80
16625;DHT22;8426;48.496;9.098;2023-05-29T12:46:37;26.10;81.60
16625;DHT22;8426;48.496;9.098;2023-05-29T12:51:45;26.10;78.40
16625;DHT22;8426;48.496;9.098;2023-05-29T12:56:49;26.10;76.40
16625;DHT22;8426;48.496;9.098;2023-05-29T13:01:58;26.30;78.70
16625;DHT22;8426;48.496;9.098;2023-05-29T13:07:06;25.80;77.10
16625;DHT22;8426;48.496;9.098;2023-05-29T13:12:23;25.90;77.80
16625;DHT22;8426;48.496;9.098;2023-05-29T13:17:29;26.00;75.10
16625;DHT22;8426;48.496;9.098;2023-05-29T13:22:37;26.00;73.40
16625;DHT22;8426;48.496;9.098;2023-05-29T13:27:48;26.00;78.80
16625;DHT22;8426;48.496;9.098;2023-05-29T13:32:53;26.00;74.10
16625;DHT22;8426;48.496;9.098;2023-05-29T13:37:58;25.70;75.50
16625;DHT22;8426;48.496;9.098;2023-05-29T13:43:02;25.50;74.40
16625;DHT22;8426;48.496;9.098;2023-05-29T13:48:06;25.70;74.70
16625;DHT22;8426;48.496;9.098;2023-05-29T13:53:11;25.50;74.20
16625;DHT22;8426;48.496;9.098;2023-05-29T13:58:18;25.50;74.50
16625;DHT22;8426;48.496;9.098;2023-05-29T14:03:21;25.50;73.70
16625;DHT22;8426;48.496;9.098;2023-05-29T14:08:29;25.50;71.90
16625;DHT22;8426;48.496;9.098;2023-05-29T14:13:32;25.50;73.70
16625;DHT22;8426;48.496;9.098;2023-05-29T14:18:41;25.70;75.40
16625;DHT22;8426;48.496;9.098;2023-05-29T14:23:46;25.80;77.10
16625;DHT22;8426;48.496;9.098;2023-05-29T14:28:51;25.60;79.70
16625;DHT22;8426;48.496;9.098;2023-05-29T14:34:14;25.50;75.20
16625;DHT22;8426;48.496;9.098;2023-05-29T14:39:21;25.60;74.70
16625;DHT22;8426;48.496;9.098;2023-05-29T14:44:25;25.50;72.90
16625;DHT22;8426;48.496;9.098;2023-05-29T14:49:36;25.40;75.30
16625;DHT22;8426;48.496;9.098;2023-05-29T14:54:41;25.20;74.80
16625;DHT22;8426;48.496;9.098;2023-05-29T14:59:44;25.00;75.30
16625;DHT22;8426;48.496;9.098;2023-05-29T15:04:53;25.20;74.70
16625;DHT22;8426;48.496;9.098;2023-05-29T15:09:59;25.40;76.30
16625;DHT22;8426;48.496;9.098;2023-05-29T15:15:16;25.30;79.00
16625;DHT22;8426;48.496;9.098;2023-05-29T15:20:24;25.40;74.00
16625;DHT22;8426;48.496;9.098;2023-05-29T15:25:37;25.40;75.00
16625;DHT22;8426;48.496;9.098;2023-05-29T15:30:41;25.30;74.50
16625;DHT22;8426;48.496;9.098;2023-05-29T15:35:51;25.00;76.60
16625;DHT22;8426;48.496;9.098;2023-05-29T15:40:59;24.90;76.60
16625;DHT22;8426;48.496;9.098;2023-05-29T15:46:04;24.90;77.90
16625;DHT22;8426;48.496;9.098;2023-05-29T15:51:14;25.00;77.50
16625;DHT22;8426;48.496;9.098;2023-05-29T15:56:19;24.90;77.00
16625;DHT22;8426;48.496;9.098;2023-05-29T16:01:28;24.80;77.90
16625;DHT22;8426;48.496;9.098;2023-05-29T16:06:51;24.60;77.90
16625;DHT22;8426;48.496;9.098;2023-05-29T16:12:01;24.80;75.80
16625;DHT22;8426;48.496;9.098;2023-05-29T16:17:05;24.50;76.50
16625;DHT22;8426;48.496;9.098;2023-05-29T16:22:11;24.60;76.30
16625;DHT22;8426;48.496;9.098;2023-05-29T16:27:18;24.50;77.20
16625;DHT22;8426;48.496;9.098;2023-05-29T16:32:23;24.40;77.50
16625;DHT22;8426;48.496;9.098;2023-05-29T16:37:29;24.40;74.80
16625;DHT22;8426;48.496;9.098;2023-05-29T16:42:37;24.20;75.40
16625;DHT22;8426;48.496;9.098;2023-05-29T16:47:42;24.20;76.30
16625;DHT22;8426;48.496;9.098;2023-05-29T16:52:57;24.10;77.60
16625;DHT22;8426;48.496;9.098;2023-05-29T16:58:03;24.10;74.90
16625;DHT22;8426;48.496;9.098;2023-05-29T17:03:07;24.00;75.80
16625;DHT22;8426;48.496;9.098;2023-05-29T17:08:11;23.90;76.40
16625;DHT22;8426;48.496;9.098;2023-05-29T17:13:18;23.70;76.70
16625;DHT22;8426;48.496;9.098;2023-05-29T17:18:22;23.60;77.70
16625;DHT22;8426;48.496;9.098;2023-05-29T17:23:34;23.60;78.70
16625;DHT22;8426;48.496;9.098;2023-05-29T17:29:09;23.40;77.40
16625;DHT22;8426;48.496;9.098;2023-05-29T17:34:30;23.30;78.10
16625;DHT22;8426;48.496;9.098;2023-05-29T17:39:37;23.20;79.50
16625;DHT22;8426;48.496;9.098;2023-05-29T17:44:57;23.10;80.20
16625;DHT22;8426;48.496;9.098;2023-05-29T17:50:14;22.90;80.30
16625;DHT22;8426;48.496;9.098;2023-05-29T17:55:18;22.70;82.10
16625;DHT22;8426;48.496;9.098;2023-05-29T18:00:30;22.60;85.40
16625;DHT22;8426;48.496;9.098;2023-05-29T18:05:34;22.30;87.30
16625;DHT22;8426;48.496;9.098;2023-05-29T18:10:38;22.20;88.40
16625;DHT22;8426;48.496;9.098;2023-05-29T18:15:45;21.90;88.60
16625;DHT22;8426;48.496;9.098;2023-05-29T18:21:04;21.70;90.10
16625;DHT22;8426;48.496;9.098;2023-05-29T18:26:12;21.50;90.20
16625;DHT22;8426;48.496;9.098;2023-05-29T18:31:23;21.30;90.00
16625;DHT22;8426;48.496;9.098;2023-05-29T18:36:50;21.10;90.30
16625;DHT22;8426;48.496;9.098;2023-05-29T18:41:55;20.90;91.10
16625;DHT22;8426;48.496;9.098;2023-05-29T18:47:05;20.70;90.90
16625;DHT22;8426;48.496;9.098;2023-05-29T18:52:10;20.50;90.80
16625;DHT22;8426;48.496;9.098;2023-05-29T18:57:31;20.30;91.20
16625;DHT22;8426;48.496;9.098;2023-05-29T19:02:54;20.10;91.20
16625;DHT22;8426;48.496;9.098;2023-05-29T19:08:01;19.80;91.60
16625;DHT22;8426;48.496;9.098;2023-05-29T19:13:16;19.70;92.00
16625;DHT22;8426;48.496;9.098;2023-05-29T19:18:30;19.40;92.40
16625;DHT22;8426;48.496;9.098;2023-05-29T19:23:37;19.10;92.80
16625;DHT22;8426;48.496;9.098;2023-05-29T19:28:44;18.90;93.40
16625;DHT22;8426;48.496;9.098;2023-05-29T19:33:55;18.80;93.40
16625;DHT22;8426;48.496;9.098;2023-05-29T19:39:01;18.60;93.90
16625;DHT22;8426;48.496;9.098;2023-05-29T19:44:08;18.60;94.10
16625;DHT22;8426;48.496;9.098;2023-05-29T19:49:13;18.50;93.60
16625;DHT22;8426;48.496;9.098;2023-05-29T19:54:17;18.20;94.30
16625;DHT22;8426;48.496;9.098;2023-05-29T19:59:22;18.20;94.10
16625;DHT22;8426;48.496;9.098;2023-05-29T20:04:31;17.90;95.60
16625;DHT22;8426;48.496;9.098;2023-05-29T20:09:38;17.60;95.70
16625;DHT22;8426;48.496;9.098;2023-05-29T20:14:41;17.50;95.50
16625;DHT22;8426;48.496;9.098;2023-05-29T20:19:48;17.40;95.20
16625;DHT22;8426;48.496;9.098;2023-05-29T20:24:53;17.30;96.50
16625;DHT22;8426;48.496;9.098;2023-05-29T20:29:57;17.10;96.50
16625;DHT22;8426;48.496;9.098;2023-05-29T20:35:06;16.90;97.00
16625;DHT22;8426;48.496;9.098;2023-05-29T20:40:12;16.70;96.40
16625;DHT22;8426;48.496;9.098;2023-05-29T20:45:25;16.60;96.90
16625;DHT22;8426;48.496;9.098;2023-05-29T20:50:32;16.60;97.40
16625;DHT22;8426;48.496;9.098;2023-05-29T20:55:38;16.50;97.60
16625;DHT22;8426;48.496;9.098;2023-05-29T21:00:41;16.40;97.30
16625;DHT22;8426;48.496;9.098;2023-05-29T21:05:56;16.40;97.60
16625;DHT22;8426;48.496;9.098;2023-05-29T21:10:59;16.60;97.20
16625;DHT22;8426;48.496;9.098;2023-05-29T21:16:03;16.50;97.40
16625;DHT22;8426;48.496;9.098;2023-05-29T21:21:08;16.40;97.30
16625;DHT22;8426;48.496;9.098;2023-05-29T21:26:14;16.30;97.50
16625;DHT22;8426;48.496;9.098;2023-05-29T21:31:19;16.10;97.80
16625;DHT22;8426;48.496;9.098;2023-05-29T21:36:24;16.10;97.90
16625;DHT22;8426;48.496;9.098;2023-05-29T21:41:28;16.00;97.80
16625;DHT22;8426;48.496;9.098;2023-05-29T21:46:32;16.00;98.00
16625;DHT22;8426;48.496;9.098;2023-05-29T21:51:38;15.80;98.30
16625;DHT22;8426;48.496;9.098;2023-05-29T21:56:42;15.80;98.50
16625;DHT22;8426;48.496;9.098;2023-05-29T22:01:48;15.60;99.80
16625;DHT22;8426;48.496;9.098;2023-05-29T22:06:54;15.30;99.90
16625;DHT22;8426;48.496;9.098;2023-05-29T22:11:58;15.10;99.90
16625;DHT22;8426;48.496;9.098;2023-05-29T22:17:06;14.80;99.90
16625;DHT22;8426;48.496;9.098;2023-05-29T22:22:16;14.60;99.90
16625;DHT22;8426;48.496;9.098;2023-05-29T22:27:20;14.50;99.90
16625;DHT22;8426;48.496;9.098;2023-05-29T22:32:24;14.30;99.90
16625;DHT22;8426;48.496;9.098;2023-05-29T22:37:33;14.60;99.90
16625;DHT22;8426;48.496;9.098;2023-05-29T22:42:38;14.80;99.90
16625;DHT22;8426;48.496;9.098;2023-05-29T22:47:42;14.90;99.90
16625;DHT22;8426;48.496;9.098;2023-05-29T22:52:48;15.00;99.90
16625;DHT22;8426;48.496;9.098;2023-05-29T22:57:52;14.90;99.90
16625;DHT22;8426;48.496;9.098;2023-05-29T23:03:03;14.90;99.90
16625;DHT22;8426;48.496;9.098;2023-05-29T23:08:08;14.90;99.90
16625;DHT22;8426;48.496;9.098;2023-05-29T23:13:13;14.90;99.90
16625;DHT22;8426;48.496;9.098;2023-05-29T23:18:18;14.70;99.90
16625;DHT22;8426;48.496;9.098;2023-05-29T23:23:23;14.70;99.90
16625;DHT22;8426;48.496;9.098;2023-05-29T23:28:27;14.60;99.90
16625;DHT22;8426;48.496;9.098;2023-05-29T23:33:33;14.40;99.90
16625;DHT22;8426;48.496;9.098;2023-05-29T23:38:44;14.30;99.90
16625;DHT22;8426;48.496;9.098;2023-05-29T23:43:49;14.30;99.90
16625;DHT22;8426;48.496;9.098;2023-05-29T23:48:53;14.30;99.90
16625;DHT22;8426;48.496;9.098;2023-05-29T23:54:01;14.20;99.90
16625;DHT22;8426;48.496;9.098;2023-05-29T23:59:05;14.10;99.90
